<?xml version="1.0" encoding="UTF-8" standalone="no" ?>
<gpx xmlns="http://www.topografix.com/GPX/1/1" creator="MapSource 6.15.5" version="1.1"
xmlns:xsi="http://www.w3.org/2001/XMLSchema-instance"
xsi:schemaLocation="http://www.topografix.com/GPX/1/1 http://www.topografix.com/GPX/1/1/gpx.xsd">

  <trk>
    <trkseg>
      <trkpt lat="48.115538" lon="11.284688">
       <time>2017-05-16T08:23:18Z</time>
       <course>0.0</course>
  <speed>1.3</speed>
       </trkpt>
      <trkpt lat="48.115538" lon="11.284688">
       <time>2017-05-16T08:23:18Z</time>
       <course>0.0</course>
  <speed>1.3</speed>
       </trkpt>
      <trkpt lat="48.115507" lon="11.284732">
       <time>2017-05-16T08:23:20Z</time>
       <course>0.0</course>
  <speed>1.0</speed>
       </trkpt>
      <trkpt lat="48.115473" lon="11.284778">
       <time>2017-05-16T08:23:22Z</time>
       <course>0.0</course>
  <speed>0.7</speed>
       </trkpt>
      <trkpt lat="48.115453" lon="11.284803">
       <time>2017-05-16T08:23:24Z</time>
       <course>0.0</course>
  <speed>0.4</speed>
       </trkpt>
      <trkpt lat="48.115452" lon="11.284815">
       <time>2017-05-16T08:23:26Z</time>
       <course>0.0</course>
  <speed>0.2</speed>
       </trkpt>
      <trkpt lat="48.115463" lon="11.284787">
       <time>2017-05-16T08:23:28Z</time>
       <course>0.0</course>
  <speed>0.8</speed>
       </trkpt>
      <trkpt lat="48.115455" lon="11.284800">
       <time>2017-05-16T08:23:30Z</time>
       <course>0.0</course>
  <speed>0.8</speed>
       </trkpt>
      <trkpt lat="48.115427" lon="11.284828">
       <time>2017-05-16T08:23:32Z</time>
       <course>0.0</course>
  <speed>0.4</speed>
       </trkpt>
      <trkpt lat="48.115428" lon="11.284832">
       <time>2017-05-16T08:23:34Z</time>
       <course>0.0</course>
  <speed>0.6</speed>
       </trkpt>
      <trkpt lat="48.115402" lon="11.284868">
       <time>2017-05-16T08:23:36Z</time>
       <course>0.0</course>
  <speed>0.3</speed>
       </trkpt>
      <trkpt lat="48.115377" lon="11.284900">
       <time>2017-05-16T08:23:38Z</time>
       <course>0.0</course>
  <speed>0.3</speed>
       </trkpt>
      <trkpt lat="48.115393" lon="11.284887">
       <time>2017-05-16T08:23:40Z</time>
       <course>0.0</course>
  <speed>0.4</speed>
       </trkpt>
      <trkpt lat="48.115373" lon="11.284897">
       <time>2017-05-16T08:23:42Z</time>
       <course>0.0</course>
  <speed>0.2</speed>
       </trkpt>
      <trkpt lat="48.115382" lon="11.284892">
       <time>2017-05-16T08:23:44Z</time>
       <course>0.0</course>
  <speed>0.1</speed>
       </trkpt>
      <trkpt lat="48.115367" lon="11.284907">
       <time>2017-05-16T08:23:46Z</time>
       <course>0.0</course>
  <speed>0.2</speed>
       </trkpt>
      <trkpt lat="48.115363" lon="11.284912">
       <time>2017-05-16T08:23:48Z</time>
       <course>0.0</course>
  <speed>0.3</speed>
       </trkpt>
      <trkpt lat="48.115345" lon="11.284927">
       <time>2017-05-16T08:23:50Z</time>
       <course>0.0</course>
  <speed>0.6</speed>
       </trkpt>
      <trkpt lat="48.115353" lon="11.284927">
       <time>2017-05-16T08:23:52Z</time>
       <course>0.0</course>
  <speed>0.3</speed>
       </trkpt>
      <trkpt lat="48.115347" lon="11.284945">
       <time>2017-05-16T08:23:54Z</time>
       <course>0.0</course>
  <speed>0.4</speed>
       </trkpt>
      <trkpt lat="48.115337" lon="11.284968">
       <time>2017-05-16T08:23:56Z</time>
       <course>0.0</course>
  <speed>0.6</speed>
       </trkpt>
      <trkpt lat="48.115338" lon="11.284988">
       <time>2017-05-16T08:23:58Z</time>
       <course>0.0</course>
  <speed>0.5</speed>
       </trkpt>
      <trkpt lat="48.115335" lon="11.284992">
       <time>2017-05-16T08:24:00Z</time>
       <course>0.0</course>
  <speed>0.4</speed>
       </trkpt>
      <trkpt lat="48.115335" lon="11.284992">
       <time>2017-05-16T08:24:02Z</time>
       <course>0.0</course>
  <speed>0.2</speed>
       </trkpt>
      <trkpt lat="48.115325" lon="11.285008">
       <time>2017-05-16T08:24:04Z</time>
       <course>0.0</course>
  <speed>0.4</speed>
       </trkpt>
      <trkpt lat="48.115320" lon="11.285013">
       <time>2017-05-16T08:24:06Z</time>
       <course>0.0</course>
  <speed>0.3</speed>
       </trkpt>
      <trkpt lat="48.115307" lon="11.285027">
       <time>2017-05-16T08:24:08Z</time>
       <course>0.0</course>
  <speed>0.4</speed>
       </trkpt>
      <trkpt lat="48.115290" lon="11.285032">
       <time>2017-05-16T08:24:10Z</time>
       <course>0.0</course>
  <speed>0.5</speed>
       </trkpt>
      <trkpt lat="48.115273" lon="11.285035">
       <time>2017-05-16T08:24:12Z</time>
       <course>0.0</course>
  <speed>0.4</speed>
       </trkpt>
      <trkpt lat="48.115222" lon="11.285052">
       <time>2017-05-16T08:24:14Z</time>
       <course>134.1</course>
  <speed>0.9</speed>
       </trkpt>
      <trkpt lat="48.115220" lon="11.285040">
       <time>2017-05-16T08:24:16Z</time>
       <course>146.4</course>
  <speed>0.6</speed>
       </trkpt>
      <trkpt lat="48.115208" lon="11.285045">
       <time>2017-05-16T08:24:18Z</time>
       <course>146.4</course>
  <speed>0.6</speed>
       </trkpt>
      <trkpt lat="48.115187" lon="11.285037">
       <time>2017-05-16T08:24:20Z</time>
       <course>146.4</course>
  <speed>0.6</speed>
       </trkpt>
      <trkpt lat="48.115145" lon="11.285047">
       <time>2017-05-16T08:24:22Z</time>
       <course>155.5</course>
  <speed>1.0</speed>
       </trkpt>
      <trkpt lat="48.115123" lon="11.285043">
       <time>2017-05-16T08:24:24Z</time>
       <course>159.5</course>
  <speed>1.0</speed>
       </trkpt>
      <trkpt lat="48.115123" lon="11.285028">
       <time>2017-05-16T08:24:26Z</time>
       <course>159.5</course>
  <speed>0.7</speed>
       </trkpt>
      <trkpt lat="48.115130" lon="11.285030">
       <time>2017-05-16T08:24:28Z</time>
       <course>159.5</course>
  <speed>0.5</speed>
       </trkpt>
      <trkpt lat="48.115118" lon="11.285032">
       <time>2017-05-16T08:24:30Z</time>
       <course>159.5</course>
  <speed>0.5</speed>
       </trkpt>
      <trkpt lat="48.115117" lon="11.285027">
       <time>2017-05-16T08:24:32Z</time>
       <course>159.5</course>
  <speed>0.5</speed>
       </trkpt>
      <trkpt lat="48.115125" lon="11.285030">
       <time>2017-05-16T08:24:34Z</time>
       <course>159.5</course>
  <speed>0.4</speed>
       </trkpt>
      <trkpt lat="48.115147" lon="11.284998">
       <time>2017-05-16T08:24:36Z</time>
       <course>159.5</course>
  <speed>0.2</speed>
       </trkpt>
      <trkpt lat="48.115140" lon="11.284997">
       <time>2017-05-16T08:24:38Z</time>
       <course>159.5</course>
  <speed>0.0</speed>
       </trkpt>
      <trkpt lat="48.115140" lon="11.284997">
       <time>2017-05-16T08:24:40Z</time>
       <course>159.5</course>
  <speed>0.0</speed>
       </trkpt>
      <trkpt lat="48.115140" lon="11.284997">
       <time>2017-05-16T08:24:42Z</time>
       <course>159.5</course>
  <speed>0.0</speed>
       </trkpt>
      <trkpt lat="48.115147" lon="11.284970">
       <time>2017-05-16T08:24:44Z</time>
       <course>159.5</course>
  <speed>0.5</speed>
       </trkpt>
      <trkpt lat="48.115148" lon="11.284958">
       <time>2017-05-16T08:24:46Z</time>
       <course>159.5</course>
  <speed>0.2</speed>
       </trkpt>
      <trkpt lat="48.115165" lon="11.284953">
       <time>2017-05-16T08:24:48Z</time>
       <course>159.5</course>
  <speed>0.4</speed>
       </trkpt>
      <trkpt lat="48.115165" lon="11.284948">
       <time>2017-05-16T08:24:50Z</time>
       <course>159.5</course>
  <speed>0.3</speed>
       </trkpt>
      <trkpt lat="48.115178" lon="11.284938">
       <time>2017-05-16T08:24:52Z</time>
       <course>159.5</course>
  <speed>0.5</speed>
       </trkpt>
      <trkpt lat="48.115157" lon="11.284963">
       <time>2017-05-16T08:24:54Z</time>
       <course>159.5</course>
  <speed>0.2</speed>
       </trkpt>
      <trkpt lat="48.115147" lon="11.284975">
       <time>2017-05-16T08:24:56Z</time>
       <course>159.5</course>
  <speed>0.3</speed>
       </trkpt>
      <trkpt lat="48.115127" lon="11.285002">
       <time>2017-05-16T08:24:58Z</time>
       <course>159.5</course>
  <speed>0.5</speed>
       </trkpt>
      <trkpt lat="48.115092" lon="11.285033">
       <time>2017-05-16T08:25:00Z</time>
       <course>160.6</course>
  <speed>0.9</speed>
       </trkpt>
      <trkpt lat="48.115083" lon="11.285055">
       <time>2017-05-16T08:25:02Z</time>
       <course>159.7</course>
  <speed>0.7</speed>
       </trkpt>
      <trkpt lat="48.115063" lon="11.285080">
       <time>2017-05-16T08:25:04Z</time>
       <course>157.6</course>
  <speed>0.9</speed>
       </trkpt>
      <trkpt lat="48.115033" lon="11.285080">
       <time>2017-05-16T08:25:06Z</time>
       <course>164.2</course>
  <speed>0.9</speed>
       </trkpt>
      <trkpt lat="48.115043" lon="11.285088">
       <time>2017-05-16T08:25:08Z</time>
       <course>164.0</course>
  <speed>0.6</speed>
       </trkpt>
      <trkpt lat="48.115030" lon="11.285110">
       <time>2017-05-16T08:25:10Z</time>
       <course>162.1</course>
  <speed>0.7</speed>
       </trkpt>
      <trkpt lat="48.115037" lon="11.285112">
       <time>2017-05-16T08:25:12Z</time>
       <course>162.1</course>
  <speed>0.4</speed>
       </trkpt>
      <trkpt lat="48.115020" lon="11.285132">
       <time>2017-05-16T08:25:14Z</time>
       <course>162.1</course>
  <speed>0.5</speed>
       </trkpt>
      <trkpt lat="48.114952" lon="11.285180">
       <time>2017-05-16T08:25:16Z</time>
       <course>155.5</course>
  <speed>1.5</speed>
       </trkpt>
      <trkpt lat="48.114915" lon="11.285210">
       <time>2017-05-16T08:25:18Z</time>
       <course>154.1</course>
  <speed>1.7</speed>
       </trkpt>
      <trkpt lat="48.114882" lon="11.285237">
       <time>2017-05-16T08:25:20Z</time>
       <course>154.3</course>
  <speed>1.6</speed>
       </trkpt>
      <trkpt lat="48.114822" lon="11.285297">
       <time>2017-05-16T08:25:22Z</time>
       <course>154.7</course>
  <speed>2.1</speed>
       </trkpt>
      <trkpt lat="48.114770" lon="11.285343">
       <time>2017-05-16T08:25:24Z</time>
       <course>153.8</course>
  <speed>2.3</speed>
       </trkpt>
      <trkpt lat="48.114717" lon="11.285408">
       <time>2017-05-16T08:25:26Z</time>
       <course>152.4</course>
  <speed>2.5</speed>
       </trkpt>
      <trkpt lat="48.114673" lon="11.285465">
       <time>2017-05-16T08:25:28Z</time>
       <course>151.3</course>
  <speed>2.6</speed>
       </trkpt>
      <trkpt lat="48.114635" lon="11.285522">
       <time>2017-05-16T08:25:30Z</time>
       <course>150.8</course>
  <speed>2.6</speed>
       </trkpt>
    </trkseg>
 </trk>
</gpx>